Terminal Aerodrome Forecast
Issued by NWS

Home | Current Version | Previous Version | Graphics & Text | Print | Product List | Glossary On
Versions: 1 2 3 4 5 6 7 8 9 10 11 12 13 14
427
FTUS43 KGRB 302338
TAFCWA
TAF
KCWA 302338Z 3100/3124 VRB03KT P6SM FEW250
     FM310900 10005KT P6SM SCT070 BKN100 PROB30 3109/3115 -SHRA
      BKN040 OVC070
     FM311500 13012KT P6SM -SHRA BKN040 OVC070
     FM312200 18008KT 6SM -SHRA BR SCT030 OVC050
      AMD LTD TO CLD VIS AND WIND 3103/3111=

USA.gov is the U.S. government's official web portal to all federal, state and local government web resources and services.